createdAt,value
2022-09-11T00:01:32.514Z,6.63
2022-09-11T00:03:59.758Z,4.03
2022-09-11T00:06:30.240Z,5.25
2022-09-11T00:09:03.796Z,6.38
2022-09-11T00:11:33.887Z,4.30
2022-09-11T00:14:01.815Z,5.05
2022-09-11T00:16:33.988Z,6.00
2022-09-11T00:19:05.612Z,5.32
2022-09-11T00:21:32.715Z,5.47
2022-09-11T00:24:00.925Z,8.00
2022-09-11T00:26:39.343Z,7.18
2022-09-11T00:29:07.070Z,5.95
2022-09-11T00:31:34.438Z,5.68
2022-09-11T00:34:01.460Z,7.95
2022-09-11T00:36:32.269Z,6.93
2022-09-11T00:38:59.618Z,6.00
2022-09-11T00:41:32.387Z,6.45
2022-09-11T00:44:26.638Z,5.88
2022-09-11T00:47:09.705Z,5.90
2022-09-11T00:49:43.468Z,6.78
2022-09-11T00:52:54.192Z,6.85
2022-09-11T00:55:26.739Z,8.43
2022-09-11T00:58:01.891Z,7.07
2022-09-11T01:00:29.112Z,9.10
2022-09-11T01:02:57.829Z,8.75
2022-09-11T01:05:27.908Z,8.48
2022-09-11T01:07:56.520Z,13.07
2022-09-11T01:10:37.266Z,8.48
2022-09-11T01:13:43.198Z,9.75
2022-09-11T01:16:29.874Z,9.30
2022-09-11T01:19:32.703Z,11.40
2022-09-11T01:22:31.457Z,9.95
2022-09-11T01:25:09.203Z,10.90
2022-09-11T01:27:42.041Z,11.95
2022-09-11T01:30:32.368Z,9.52
2022-09-11T01:33:20.742Z,12.55
2022-09-11T01:36:03.737Z,9.48
2022-09-11T01:38:46.119Z,11.43
2022-09-11T01:41:18.417Z,10.65
2022-09-11T01:43:55.041Z,10.95
2022-09-11T01:46:24.895Z,12.68
2022-09-11T01:49:12.284Z,13.25
2022-09-11T01:51:41.452Z,13.15
2022-09-11T01:54:20.873Z,12.38
2022-09-11T01:56:52.744Z,13.88
2022-09-11T01:59:28.125Z,13.40
2022-09-11T02:02:03.748Z,11.45
2022-09-11T02:04:35.198Z,11.93
2022-09-11T02:07:26.145Z,12.98
2022-09-11T02:10:00.100Z,9.32
2022-09-11T02:12:41.673Z,16.08
2022-09-11T02:15:09.409Z,17.38
2022-09-11T02:17:57.387Z,14.80
2022-09-11T02:20:28.764Z,18.73
2022-09-11T02:22:56.957Z,20.95
2022-09-11T02:25:24.433Z,19.55
2022-09-11T02:27:55.689Z,13.48
2022-09-11T02:30:23.164Z,16.80
2022-09-11T02:32:50.102Z,18.60
2022-09-11T02:38:01.386Z,20.73
2022-09-11T02:40:47.438Z,18.08
2022-09-11T02:43:22.688Z,23.48
2022-09-11T02:46:23.242Z,23.23
2022-09-11T02:49:09.140Z,18.83
2022-09-11T02:52:04.888Z,18.08
2022-09-11T02:54:54.097Z,20.48
2022-09-11T02:57:31.017Z,18.65
2022-09-11T03:00:05.022Z,18.98
2022-09-11T03:02:37.473Z,20.02
2022-09-11T03:05:06.368Z,18.77
2022-09-11T03:07:33.502Z,20.98
2022-09-11T03:10:00.571Z,20.52
2022-09-11T03:12:28.588Z,20.00
2022-09-11T03:14:56.963Z,18.80
2022-09-11T03:17:25.456Z,20.10
2022-09-11T03:19:52.214Z,18.67
2022-09-11T03:22:19.180Z,20.35
2022-09-11T03:24:46.667Z,19.98
2022-09-11T03:27:13.515Z,19.58
2022-09-11T03:29:41.593Z,17.90
2022-09-11T03:32:09.780Z,20.25
2022-09-11T03:34:37.717Z,19.83
2022-09-11T03:37:04.568Z,19.83
2022-09-11T03:39:31.400Z,20.58
2022-09-11T03:41:59.768Z,22.70
2022-09-11T03:44:27.396Z,19.45
2022-09-11T03:46:54.296Z,22.17
2022-09-11T03:49:21.036Z,19.42
2022-09-11T03:54:16.101Z,24.13
2022-09-11T03:56:43.724Z,22.30
2022-09-11T04:01:38.659Z,22.42
2022-09-11T04:04:06.516Z,21.80
2022-09-11T04:06:40.605Z,22.63
2022-09-11T04:09:08.969Z,22.67
2022-09-11T04:11:38.855Z,23.65
2022-09-11T04:14:09.270Z,21.30
2022-09-11T04:16:38.190Z,20.60
2022-09-11T04:19:05.776Z,24.58
2022-09-11T04:21:34.710Z,21.65
2022-09-11T04:24:02.290Z,23.27
2022-09-11T04:26:31.816Z,24.02
2022-09-11T04:29:06.268Z,22.88
2022-09-11T04:31:36.035Z,23.33
2022-09-11T04:34:03.110Z,22.58
2022-09-11T04:36:33.906Z,23.13
2022-09-11T04:39:01.423Z,24.95
2022-09-11T04:41:29.512Z,26.52
2022-09-11T04:44:05.440Z,24.42
2022-09-11T04:49:08.678Z,27.10
2022-09-11T04:51:36.727Z,24.85
2022-09-11T04:54:04.944Z,26.73
2022-09-11T04:56:38.367Z,27.80
2022-09-11T04:59:16.050Z,23.35
2022-09-11T05:01:48.200Z,23.90
2022-09-11T05:04:21.804Z,23.65
2022-09-11T05:06:51.365Z,27.05
2022-09-11T05:09:19.257Z,22.65
2022-09-11T05:11:48.058Z,23.05
2022-09-11T05:14:15.977Z,25.88
2022-09-11T05:16:45.470Z,25.55
2022-09-11T05:19:14.253Z,25.60
2022-09-11T05:21:43.584Z,24.75
2022-09-11T05:24:10.572Z,26.83
2022-09-11T05:26:38.552Z,28.15
2022-09-11T05:29:12.361Z,23.15
2022-09-11T05:31:45.177Z,24.05
2022-09-11T05:34:14.902Z,25.92
2022-09-11T05:36:41.787Z,29.00
2022-09-11T05:39:10.402Z,29.33
2022-09-11T05:41:37.992Z,28.67
2022-09-11T05:46:33.329Z,28.92
2022-09-11T05:49:02.693Z,27.65
2022-09-11T05:53:58.600Z,33.63
2022-09-11T05:56:26.395Z,33.95
2022-09-11T05:58:58.624Z,31.15
2022-09-11T06:01:32.461Z,35.03
2022-09-11T06:04:12.345Z,31.05
2022-09-11T06:06:41.350Z,29.80
2022-09-11T06:11:35.515Z,32.47
2022-09-11T06:14:03.348Z,30.13
2022-09-11T06:16:31.593Z,31.00
2022-09-11T06:19:05.696Z,35.38
2022-09-11T06:21:32.439Z,26.98
2022-09-11T06:24:08.356Z,30.40
2022-09-11T06:26:36.105Z,28.02
2022-09-11T06:29:03.241Z,26.92
2022-09-11T06:31:35.260Z,27.00
2022-09-11T06:34:02.117Z,26.67
2022-09-11T06:36:32.550Z,26.40
2022-09-11T06:39:03.074Z,28.38
2022-09-11T06:41:31.275Z,27.48
2022-09-11T06:44:04.272Z,27.55
2022-09-11T06:46:32.147Z,25.77
2022-09-11T06:49:01.311Z,22.42
2022-09-11T06:51:29.414Z,24.00
2022-09-11T06:54:02.301Z,23.17
2022-09-11T06:56:33.280Z,25.55
2022-09-11T06:59:01.355Z,22.30
2022-09-11T07:01:30.156Z,24.20
2022-09-11T07:04:02.891Z,21.83
2022-09-11T07:06:33.345Z,20.58
2022-09-11T07:09:02.742Z,21.42
2022-09-11T07:11:44.906Z,22.33
2022-09-11T07:14:12.348Z,21.05
2022-09-11T07:16:42.189Z,18.17
2022-09-11T07:19:12.910Z,23.33
2022-09-11T07:21:41.822Z,17.02
2022-09-11T07:24:09.827Z,22.85
2022-09-11T07:26:40.643Z,22.23
2022-09-11T07:29:16.637Z,19.88
2022-09-11T07:31:46.077Z,21.58
2022-09-11T07:34:13.102Z,19.73
2022-09-11T07:36:39.946Z,18.95
2022-09-11T07:39:08.874Z,20.60
2022-09-11T07:41:48.899Z,24.95
2022-09-11T07:44:22.743Z,21.65
2022-09-11T07:46:51.095Z,20.80
2022-09-11T07:49:18.257Z,22.65
2022-09-11T07:51:45.206Z,20.42
2022-09-11T07:54:15.528Z,20.70
2022-09-11T07:56:42.671Z,20.77
2022-09-11T07:59:11.554Z,18.60
2022-09-11T08:01:42.772Z,18.15
2022-09-11T08:04:12.039Z,21.35
2022-09-11T08:06:40.391Z,19.52
2022-09-11T08:09:15.443Z,16.85
2022-09-11T08:11:48.794Z,18.77
2022-09-11T08:14:17.753Z,19.48
2022-09-11T08:16:48.292Z,18.13
2022-09-11T08:19:21.724Z,18.83
2022-09-11T08:21:55.233Z,17.77
2022-09-11T08:24:22.526Z,14.32
2022-09-11T08:26:51.497Z,17.45
2022-09-11T08:29:19.312Z,17.10
2022-09-11T08:31:47.376Z,16.27
2022-09-11T08:34:15.872Z,16.83
2022-09-11T08:36:42.770Z,16.00
2022-09-11T08:39:09.845Z,17.52
2022-09-11T08:41:56.393Z,14.80
2022-09-11T08:44:57.068Z,14.45
2022-09-11T08:47:38.819Z,19.75
2022-09-11T08:50:14.544Z,21.45
2022-09-11T08:52:43.004Z,22.67
2022-09-11T08:55:22.788Z,18.10
2022-09-11T08:58:18.198Z,18.50
2022-09-11T09:01:13.505Z,16.95
2022-09-11T09:04:13.836Z,15.60
2022-09-11T09:07:10.988Z,14.98
2022-09-11T09:09:57.174Z,14.75
2022-09-11T09:12:49.558Z,16.63
2022-09-11T09:15:33.203Z,15.52
2022-09-11T09:18:15.106Z,17.38
2022-09-11T09:20:56.826Z,15.13
2022-09-11T09:23:27.901Z,12.18
2022-09-11T09:25:57.130Z,14.65
2022-09-11T09:28:29.424Z,15.38
2022-09-11T09:31:00.943Z,16.15
2022-09-11T09:33:52.853Z,14.23
2022-09-11T09:36:24.821Z,13.82
2022-09-11T09:38:54.363Z,13.50
2022-09-11T09:41:31.127Z,15.93
2022-09-11T09:46:53.420Z,13.30
2022-09-11T09:49:26.568Z,12.02
2022-09-11T09:51:57.363Z,14.45
2022-09-11T09:54:29.904Z,14.80
2022-09-11T09:57:02.378Z,14.18
2022-09-11T09:59:45.622Z,11.90
2022-09-11T10:02:12.423Z,13.68
2022-09-11T10:04:39.269Z,15.38
2022-09-11T10:07:14.142Z,15.35
2022-09-11T10:09:50.008Z,14.77
2022-09-11T10:12:22.484Z,15.20
2022-09-11T10:14:59.527Z,14.20
2022-09-11T10:17:32.283Z,13.23
2022-09-11T10:20:23.535Z,14.88
2022-09-11T10:22:51.500Z,13.52
2022-09-11T10:25:26.821Z,11.43
2022-09-11T10:28:01.731Z,12.30
2022-09-11T10:30:33.850Z,11.00
2022-09-11T10:33:05.142Z,12.10
2022-09-11T10:35:35.600Z,13.63
2022-09-11T10:38:17.997Z,12.50
2022-09-11T10:41:13.875Z,13.13
2022-09-11T10:43:47.669Z,15.35
2022-09-11T10:46:40.045Z,14.40
2022-09-11T10:49:09.160Z,15.48
2022-09-11T10:51:39.306Z,15.00
2022-09-11T10:54:34.509Z,16.70
2022-09-11T10:57:21.031Z,13.85
2022-09-11T10:59:56.877Z,16.43
2022-09-11T11:02:38.998Z,15.63
2022-09-11T11:05:13.800Z,23.15
2022-09-11T11:08:30.891Z,18.35
2022-09-11T11:11:29.898Z,14.63
2022-09-11T11:14:04.371Z,12.90
2022-09-11T11:16:53.840Z,13.50
2022-09-11T11:19:50.043Z,15.07
2022-09-11T11:22:39.720Z,14.75
2022-09-11T11:25:28.560Z,13.48
2022-09-11T11:28:04.429Z,13.18
2022-09-11T11:30:37.268Z,11.10
2022-09-11T11:33:14.220Z,15.82
2022-09-11T11:38:14.602Z,12.38
2022-09-11T11:40:46.999Z,12.30
2022-09-11T11:43:17.498Z,11.18
2022-09-11T11:45:53.508Z,11.25
2022-09-11T11:48:45.522Z,12.38
2022-09-11T11:51:17.523Z,14.05
2022-09-11T11:54:00.636Z,9.95
2022-09-11T11:56:53.366Z,10.13
2022-09-11T11:59:46.694Z,10.27
2022-09-11T12:02:24.644Z,11.70
2022-09-11T12:05:05.308Z,11.98
2022-09-11T12:07:35.274Z,12.15
2022-09-11T12:10:05.443Z,11.73
2022-09-11T12:12:50.208Z,10.63
2022-09-11T12:15:25.056Z,13.45
2022-09-11T12:18:24.904Z,10.55
2022-09-11T12:20:51.814Z,12.82
2022-09-11T12:23:30.735Z,11.05
2022-09-11T12:26:30.409Z,13.20
2022-09-11T12:29:12.976Z,10.45
2022-09-11T12:31:51.966Z,10.65
2022-09-11T12:34:26.803Z,11.38
2022-09-11T12:37:00.659Z,10.40
2022-09-11T12:39:39.171Z,12.05
2022-09-11T12:42:24.251Z,9.40
2022-09-11T12:44:50.937Z,10.30
2022-09-11T12:47:24.064Z,10.30
2022-09-11T12:50:05.649Z,8.73
2022-09-11T12:52:45.261Z,9.50
2022-09-11T12:55:51.330Z,10.90
2022-09-11T12:58:20.847Z,9.15
2022-09-11T13:00:51.144Z,7.70
2022-09-11T13:03:27.945Z,16.90
2022-09-11T13:06:00.003Z,17.55
2022-09-11T13:08:31.680Z,13.40
2022-09-11T13:11:36.227Z,10.00
2022-09-11T13:14:06.231Z,8.95
2022-09-11T13:16:37.146Z,9.20
2022-09-11T13:19:10.226Z,10.25
2022-09-11T13:21:39.251Z,8.55
2022-09-11T13:24:27.965Z,9.52
2022-09-11T13:26:59.611Z,8.98
2022-09-11T13:29:29.337Z,7.68
2022-09-11T13:31:59.071Z,7.45
2022-09-11T13:34:29.100Z,7.25
2022-09-11T13:36:57.151Z,8.38
2022-09-11T13:39:26.514Z,7.90
2022-09-11T13:42:01.276Z,9.10
2022-09-11T13:44:28.377Z,9.23
2022-09-11T13:46:55.903Z,8.98
2022-09-11T13:49:38.936Z,7.95
2022-09-11T13:52:07.510Z,7.07
2022-09-11T13:54:49.487Z,8.13
2022-09-11T13:57:21.095Z,7.78
2022-09-11T13:59:58.403Z,6.50
2022-09-11T14:02:40.918Z,7.03
2022-09-11T14:05:16.454Z,7.80
2022-09-11T14:08:04.615Z,5.63
2022-09-11T14:10:39.531Z,7.50
2022-09-11T14:13:18.533Z,7.95
2022-09-11T14:15:55.398Z,7.25
2022-09-11T14:18:27.558Z,8.65
2022-09-11T14:20:57.188Z,7.43
2022-09-11T14:23:28.975Z,6.63
2022-09-11T14:26:22.798Z,7.00
2022-09-11T14:29:00.388Z,6.18
2022-09-11T14:31:44.072Z,8.40
2022-09-11T14:34:12.180Z,6.53
2022-09-11T14:37:04.105Z,6.60
2022-09-11T14:39:36.909Z,6.00
2022-09-11T14:42:07.090Z,5.57
2022-09-11T14:44:35.548Z,6.38
2022-09-11T14:47:02.416Z,6.75
2022-09-11T14:49:29.709Z,4.80
2022-09-11T14:51:59.021Z,5.90
2022-09-11T14:54:31.002Z,5.30
2022-09-11T14:56:59.643Z,6.28
2022-09-11T14:59:29.101Z,7.50
2022-09-11T15:01:58.511Z,5.82
2022-09-11T15:04:25.522Z,6.82
2022-09-11T15:06:55.501Z,5.63
2022-09-11T15:09:24.040Z,6.53
2022-09-11T15:11:52.957Z,7.18
2022-09-11T15:14:44.803Z,6.00
2022-09-11T15:17:17.630Z,5.40
2022-09-11T15:19:50.413Z,5.13
2022-09-11T15:22:18.334Z,5.65
2022-09-11T15:24:45.629Z,6.38
2022-09-11T15:27:12.926Z,6.13
2022-09-11T15:29:41.587Z,7.63
2022-09-11T15:32:09.491Z,7.60
2022-09-11T15:34:40.584Z,5.32
2022-09-11T15:37:07.875Z,5.50
2022-09-11T15:39:38.645Z,6.10
2022-09-11T15:42:09.430Z,8.63
2022-09-11T15:44:36.759Z,6.63
2022-09-11T15:47:07.591Z,6.20
2022-09-11T15:49:44.494Z,5.68
2022-09-11T15:52:11.452Z,5.55
2022-09-11T15:54:38.405Z,6.03
2022-09-11T15:57:05.195Z,6.20
2022-09-11T15:59:32.506Z,6.28
2022-09-11T16:01:59.407Z,5.95
2022-09-11T16:04:32.137Z,5.30
2022-09-11T16:06:59.044Z,5.15
2022-09-11T16:09:28.778Z,6.35
2022-09-11T16:11:55.808Z,5.28
2022-09-11T16:14:25.969Z,6.90
2022-09-11T16:16:53.321Z,5.20
2022-09-11T16:19:22.869Z,5.05
2022-09-11T16:21:50.111Z,4.80
2022-09-11T16:24:17.299Z,4.82
2022-09-11T16:26:44.507Z,5.72
2022-09-11T16:29:12.791Z,7.03
2022-09-11T16:31:40.026Z,6.13
2022-09-11T16:34:07.495Z,6.20
2022-09-11T16:36:42.596Z,6.03
2022-09-11T16:39:15.033Z,6.22
2022-09-11T16:41:42.453Z,6.57
2022-09-11T16:44:11.818Z,6.30
2022-09-11T16:46:40.508Z,6.97
2022-09-11T16:49:07.332Z,6.00
2022-09-11T16:51:34.136Z,6.45
2022-09-11T16:54:02.732Z,7.90
2022-09-11T16:56:29.779Z,7.93
2022-09-11T16:58:56.597Z,7.78
2022-09-11T17:01:26.139Z,6.90
2022-09-11T17:03:55.972Z,9.20
2022-09-11T17:06:30.322Z,7.82
2022-09-11T17:08:59.695Z,8.38
2022-09-11T17:11:27.644Z,8.35
2022-09-11T17:13:54.653Z,7.88
2022-09-11T17:16:25.554Z,13.63
2022-09-11T17:18:56.677Z,9.10
2022-09-11T17:21:25.144Z,8.50
2022-09-11T17:23:54.306Z,10.00
2022-09-11T17:26:21.995Z,8.50
2022-09-11T17:28:49.940Z,8.70
2022-09-11T17:31:19.306Z,8.45
2022-09-11T17:33:47.764Z,10.25
2022-09-11T17:36:17.630Z,7.50
2022-09-11T17:38:46.137Z,8.93
2022-09-11T17:41:14.434Z,7.50
2022-09-11T17:43:41.328Z,7.65
2022-09-11T17:46:11.213Z,8.25
2022-09-11T17:48:39.814Z,7.93
2022-09-11T17:51:12.308Z,10.13
2022-09-11T17:53:41.513Z,8.98
2022-09-11T17:56:12.085Z,8.95
2022-09-11T17:58:40.271Z,8.45
2022-09-11T18:01:13.631Z,10.13
2022-09-11T18:03:42.973Z,9.50
2022-09-11T18:06:33.955Z,9.80
2022-09-11T18:09:03.124Z,8.77
2022-09-11T18:11:30.915Z,10.45
2022-09-11T18:14:00.121Z,10.85
2022-09-11T18:16:27.022Z,9.73
2022-09-11T18:18:55.444Z,11.13
2022-09-11T18:21:22.714Z,9.55
2022-09-11T18:23:52.326Z,11.90
2022-09-11T18:26:25.717Z,12.00
2022-09-11T18:29:04.258Z,13.48
2022-09-11T18:31:33.174Z,12.18
2022-09-11T18:34:01.285Z,10.48
2022-09-11T18:36:30.576Z,13.13
2022-09-11T18:39:00.993Z,11.77
2022-09-11T18:41:29.367Z,10.25
2022-09-11T18:43:57.901Z,10.18
2022-09-11T18:46:27.309Z,11.52
2022-09-11T18:48:55.819Z,11.80
2022-09-11T18:51:22.858Z,11.05
2022-09-11T18:53:53.841Z,10.80
2022-09-11T18:56:25.708Z,11.70
2022-09-11T18:58:52.523Z,11.18
2022-09-11T19:03:47.471Z,12.10
2022-09-11T19:08:45.195Z,11.38
2022-09-11T19:11:18.073Z,12.18
2022-09-11T19:13:45.857Z,13.57
2022-09-11T19:16:14.470Z,13.45
2022-09-11T19:18:42.057Z,12.90
2022-09-11T19:21:12.287Z,11.27
2022-09-11T19:23:42.022Z,14.98
2022-09-11T19:26:12.272Z,10.80
2022-09-11T19:28:41.055Z,13.93
2022-09-11T19:31:08.886Z,13.02
2022-09-11T19:33:37.532Z,15.63
2022-09-11T19:36:11.677Z,14.88
2022-09-11T19:38:42.835Z,14.77
2022-09-11T19:41:15.083Z,13.23
2022-09-11T19:43:42.804Z,15.75
2022-09-11T19:46:21.625Z,16.05
2022-09-11T19:48:48.763Z,15.07
2022-09-11T19:51:21.487Z,13.88
2022-09-11T19:53:49.693Z,12.07
2022-09-11T19:56:18.679Z,12.57
2022-09-11T19:58:45.877Z,18.13
2022-09-11T20:01:16.285Z,15.35
2022-09-11T20:03:46.035Z,13.73
2022-09-11T20:06:15.035Z,13.98
2022-09-11T20:08:43.616Z,11.63
2022-09-11T20:11:13.993Z,11.32
2022-09-11T20:13:41.014Z,14.05
2022-09-11T20:16:10.943Z,13.88
2022-09-11T20:18:38.035Z,12.25
2022-09-11T20:21:08.130Z,13.20
2022-09-11T20:23:35.077Z,15.73
2022-09-11T20:26:10.072Z,16.75
2022-09-11T20:28:42.058Z,15.10
2022-09-11T20:31:29.137Z,17.40
2022-09-11T20:33:56.448Z,14.75
2022-09-11T20:36:23.861Z,14.40
2022-09-11T20:38:55.543Z,15.40
2022-09-11T20:41:24.913Z,16.45
2022-09-11T20:43:51.591Z,13.93
2022-09-11T20:46:19.382Z,13.40
2022-09-11T20:48:50.691Z,13.70
2022-09-11T20:51:17.984Z,14.82
2022-09-11T20:53:49.176Z,12.90
2022-09-11T20:56:19.464Z,14.77
2022-09-11T20:58:46.354Z,14.05
2022-09-11T21:06:12.720Z,14.77
2022-09-11T21:08:41.024Z,16.90
2022-09-11T21:11:08.219Z,14.30
2022-09-11T21:13:36.943Z,16.77
2022-09-11T21:16:09.830Z,16.15
2022-09-11T21:18:36.847Z,14.35
2022-09-11T21:21:04.173Z,16.55
2022-09-11T21:23:31.282Z,13.82
2022-09-11T21:25:58.368Z,15.57
2022-09-11T21:28:25.276Z,15.82
2022-09-11T21:30:52.062Z,15.23
2022-09-11T21:35:52.402Z,16.00
2022-09-11T21:38:24.646Z,15.48
2022-09-11T21:40:51.878Z,13.07
2022-09-11T21:43:18.769Z,15.63
2022-09-11T21:45:45.754Z,13.38
2022-09-11T21:50:39.885Z,14.63
2022-09-11T21:53:07.298Z,15.23
2022-09-11T21:55:43.427Z,17.02
2022-09-11T21:58:16.711Z,16.25
2022-09-11T22:00:44.289Z,15.57
2022-09-11T22:03:12.837Z,14.75
2022-09-11T22:05:42.942Z,15.27
2022-09-11T22:08:15.252Z,15.73
2022-09-11T22:10:47.182Z,16.60
2022-09-11T22:13:14.697Z,15.57
2022-09-11T22:15:47.508Z,13.90
2022-09-11T22:18:14.576Z,15.02
2022-09-11T22:20:42.439Z,18.70
2022-09-11T22:23:14.558Z,16.08
2022-09-11T22:25:41.575Z,15.57
2022-09-11T22:28:08.908Z,14.10
2022-09-11T22:30:35.725Z,16.48
2022-09-11T22:33:02.566Z,15.80
2022-09-11T22:37:56.514Z,16.87
2022-09-11T22:40:23.704Z,16.48
2022-09-11T22:42:50.806Z,14.50
2022-09-11T22:45:17.604Z,12.63
2022-09-11T22:47:44.386Z,17.58
2022-09-11T22:52:38.168Z,13.02
2022-09-11T22:55:06.582Z,16.60
2022-09-11T22:57:37.868Z,15.60
2022-09-11T23:00:06.959Z,15.07
2022-09-11T23:02:33.749Z,15.43
2022-09-11T23:05:19.066Z,12.88
2022-09-11T23:07:49.129Z,15.35
2022-09-11T23:10:16.216Z,14.85
2022-09-11T23:12:44.354Z,16.00
2022-09-11T23:15:11.500Z,13.15
2022-09-11T23:17:38.216Z,14.10
2022-09-11T23:20:05.541Z,15.23
2022-09-11T23:22:32.262Z,13.40
2022-09-11T23:24:59.006Z,14.35
2022-09-11T23:27:25.747Z,12.75
2022-09-11T23:29:52.709Z,16.48
2022-09-11T23:34:46.140Z,11.80
2022-09-11T23:37:12.905Z,16.90
2022-09-11T23:39:39.781Z,13.65
2022-09-11T23:44:33.393Z,12.90
2022-09-11T23:49:33.096Z,13.65
2022-09-11T23:52:02.804Z,14.23
2022-09-11T23:54:29.652Z,13.43
2022-09-11T23:59:23.188Z,12.27
